createdAt,value
2023-03-02T00:00:15.449Z,2.85
2023-03-02T00:01:15.427Z,2.72
2023-03-02T00:02:15.516Z,2.71
2023-03-02T00:03:15.409Z,2.74
2023-03-02T00:04:15.400Z,2.72
2023-03-02T00:05:15.417Z,2.79
2023-03-02T00:06:15.377Z,2.72
2023-03-02T00:07:15.398Z,2.65
2023-03-02T00:08:15.360Z,2.65
2023-03-02T00:09:15.340Z,2.56
2023-03-02T00:10:15.354Z,2.64
2023-03-02T00:11:15.327Z,2.67
2023-03-02T00:12:15.306Z,2.67
2023-03-02T00:13:15.295Z,2.68
2023-03-02T00:14:15.322Z,2.67
2023-03-02T00:15:15.276Z,2.68
2023-03-02T00:16:15.333Z,2.64
2023-03-02T00:17:15.245Z,2.64
2023-03-02T00:18:15.236Z,2.51
2023-03-02T00:19:15.238Z,2.54
2023-03-02T00:20:15.226Z,2.54
2023-03-02T00:21:15.242Z,2.51
2023-03-02T00:22:15.196Z,2.51
2023-03-02T00:23:15.265Z,2.44
2023-03-02T00:24:15.169Z,2.49
2023-03-02T00:25:15.164Z,2.51
2023-03-02T00:26:15.146Z,2.54
2023-03-02T00:27:15.156Z,2.56
2023-03-02T00:28:15.127Z,2.60
2023-03-02T00:29:15.122Z,2.56
2023-03-02T00:30:15.106Z,2.57
2023-03-02T00:31:15.151Z,2.67
2023-03-02T00:32:15.143Z,2.69
2023-03-02T00:33:15.193Z,2.65
2023-03-02T00:34:15.091Z,2.67
2023-03-02T00:35:15.044Z,2.75
2023-03-02T00:36:15.042Z,2.75
2023-03-02T00:37:15.024Z,2.82
2023-03-02T00:38:15.028Z,2.69
2023-03-02T00:39:15.010Z,2.64
2023-03-02T00:40:14.998Z,2.62
2023-03-02T00:41:14.977Z,2.72
2023-03-02T00:42:14.961Z,2.85
2023-03-02T00:43:15.175Z,2.82
2023-03-02T00:44:14.960Z,2.75
2023-03-02T00:45:14.924Z,2.74
2023-03-02T00:46:15.016Z,2.71
2023-03-02T00:47:14.909Z,2.67
2023-03-02T00:48:14.892Z,2.77
2023-03-02T00:49:14.879Z,2.69
2023-03-02T00:50:14.892Z,2.60
2023-03-02T00:51:14.863Z,2.68
2023-03-02T00:52:14.851Z,2.61
2023-03-02T00:53:14.839Z,2.71
2023-03-02T00:54:14.847Z,2.67
2023-03-02T00:55:14.819Z,2.74
2023-03-02T00:56:14.824Z,2.68
2023-03-02T00:57:14.789Z,2.83
2023-03-02T00:58:14.788Z,2.83
2023-03-02T00:59:14.769Z,2.82
2023-03-02T01:00:14.768Z,2.87
2023-03-02T01:01:15.937Z,2.85
2023-03-02T01:02:14.778Z,2.83
2023-03-02T01:03:14.764Z,2.77
2023-03-02T01:04:14.719Z,2.74
2023-03-02T01:05:14.711Z,2.77
2023-03-02T01:06:14.701Z,2.74
2023-03-02T01:07:14.693Z,2.68
2023-03-02T01:08:14.671Z,2.60
2023-03-02T01:09:14.659Z,2.57
2023-03-02T01:10:14.662Z,2.57
2023-03-02T01:11:14.642Z,2.51
2023-03-02T01:12:14.656Z,2.53
2023-03-02T01:13:14.634Z,2.51
2023-03-02T01:14:14.612Z,2.56
2023-03-02T01:15:14.601Z,2.62
2023-03-02T01:16:14.672Z,2.61
2023-03-02T01:17:14.573Z,2.60
2023-03-02T01:18:14.583Z,2.65
2023-03-02T01:19:14.553Z,2.60
2023-03-02T01:20:14.564Z,2.49
2023-03-02T01:21:14.527Z,2.44
2023-03-02T01:22:14.535Z,2.53
2023-03-02T01:23:14.535Z,2.47
2023-03-02T01:24:14.547Z,2.51
2023-03-02T01:25:14.527Z,2.50
2023-03-02T01:26:14.474Z,2.50
2023-03-02T01:27:14.473Z,2.57
2023-03-02T01:28:14.463Z,2.56
2023-03-02T01:29:14.453Z,2.61
2023-03-02T01:30:14.432Z,2.65
2023-03-02T01:31:14.468Z,2.60
2023-03-02T01:32:14.456Z,2.54
2023-03-02T01:33:14.395Z,2.56
2023-03-02T01:34:14.387Z,2.47
2023-03-02T01:35:14.402Z,2.42
2023-03-02T01:36:14.365Z,2.50
2023-03-02T01:37:14.356Z,2.32
2023-03-02T01:38:14.394Z,2.28
2023-03-02T01:39:14.332Z,2.25
2023-03-02T01:40:14.319Z,2.18
2023-03-02T01:41:14.322Z,2.25
2023-03-02T01:42:14.295Z,2.25
2023-03-02T01:43:14.296Z,2.25
2023-03-02T01:44:14.283Z,2.29
2023-03-02T01:45:14.261Z,2.24
2023-03-02T01:46:14.360Z,2.36
2023-03-02T01:47:14.235Z,2.51
2023-03-02T01:48:14.237Z,2.57
2023-03-02T01:49:14.224Z,2.46
2023-03-02T01:50:14.215Z,2.46
2023-03-02T01:51:14.188Z,2.54
2023-03-02T01:52:14.199Z,2.53
2023-03-02T01:53:14.174Z,2.54
2023-03-02T01:54:14.159Z,2.61
2023-03-02T01:55:14.149Z,2.56
2023-03-02T01:56:14.143Z,2.53
2023-03-02T01:57:14.138Z,2.56
2023-03-02T01:58:14.119Z,2.51
2023-03-02T01:59:14.097Z,2.65
2023-03-02T02:00:14.106Z,2.61
2023-03-02T02:01:14.114Z,2.64
2023-03-02T02:02:14.070Z,2.60
2023-03-02T02:03:14.079Z,2.62
2023-03-02T02:04:14.098Z,2.61
2023-03-02T02:05:14.042Z,2.68
2023-03-02T02:06:14.021Z,2.69
2023-03-02T02:07:14.009Z,2.68
2023-03-02T02:08:14.015Z,2.57
2023-03-02T02:09:14.039Z,2.50
2023-03-02T02:10:13.978Z,2.49
2023-03-02T02:11:13.978Z,2.49
2023-03-02T02:12:13.964Z,2.50
2023-03-02T02:13:13.943Z,2.50
2023-03-02T02:14:13.929Z,2.46
2023-03-02T02:15:13.937Z,2.51
2023-03-02T02:16:13.980Z,2.44
2023-03-02T02:17:13.897Z,2.39
2023-03-02T02:18:13.889Z,2.36
2023-03-02T02:19:13.875Z,2.43
2023-03-02T02:20:13.863Z,2.50
2023-03-02T02:21:13.866Z,2.50
2023-03-02T02:22:13.853Z,2.50
2023-03-02T02:23:13.842Z,2.49
2023-03-02T02:24:13.815Z,2.53
2023-03-02T02:25:13.804Z,2.53
2023-03-02T02:26:13.811Z,2.50
2023-03-02T02:27:13.792Z,2.43
2023-03-02T02:28:13.787Z,2.39
2023-03-02T02:29:13.768Z,2.36
2023-03-02T02:30:13.753Z,2.44
2023-03-02T02:31:13.747Z,2.46
2023-03-02T02:32:13.925Z,2.50
2023-03-02T02:33:13.733Z,2.53
2023-03-02T02:34:13.709Z,2.54
2023-03-02T02:35:13.698Z,2.54
2023-03-02T02:36:13.684Z,2.49
2023-03-02T02:37:13.669Z,2.44
2023-03-02T02:38:13.674Z,2.43
2023-03-02T02:39:13.664Z,2.43
2023-03-02T02:40:13.643Z,2.38
2023-03-02T02:41:13.661Z,2.35
2023-03-02T02:42:13.697Z,2.43
2023-03-02T02:43:13.627Z,2.51
2023-03-02T02:44:13.678Z,2.49
2023-03-02T02:45:13.588Z,2.43
2023-03-02T02:46:13.574Z,2.49
2023-03-02T02:47:13.554Z,2.44
2023-03-02T02:48:13.551Z,2.50
2023-03-02T02:49:13.540Z,2.50
2023-03-02T02:50:13.532Z,2.49
2023-03-02T02:51:13.521Z,2.51
2023-03-02T02:52:13.521Z,2.47
2023-03-02T02:53:13.491Z,2.47
2023-03-02T02:54:13.481Z,2.56
2023-03-02T02:55:13.488Z,2.65
2023-03-02T02:56:13.468Z,2.60
2023-03-02T02:57:13.443Z,2.68
2023-03-02T02:58:13.430Z,2.67
2023-03-02T03:00:04.145Z,2.65
2023-03-02T03:01:04.202Z,2.65
2023-03-02T03:02:04.122Z,2.57
2023-03-02T03:03:04.115Z,2.60
2023-03-02T03:04:04.132Z,2.64
2023-03-02T03:05:04.101Z,2.47
2023-03-02T03:06:04.081Z,2.32
2023-03-02T03:07:04.154Z,2.44
2023-03-02T03:08:04.054Z,2.57
2023-03-02T03:09:04.045Z,2.50
2023-03-02T03:10:04.132Z,2.56
2023-03-02T03:11:04.019Z,2.56
2023-03-02T03:12:04.048Z,2.49
2023-03-02T03:13:04.008Z,2.38
2023-03-02T03:14:03.982Z,2.53
2023-03-02T03:15:03.976Z,2.57
2023-03-02T03:16:03.961Z,2.51
2023-03-02T03:17:03.984Z,2.53
2023-03-02T03:18:03.950Z,2.33
2023-03-02T03:19:03.928Z,2.39
2023-03-02T03:20:03.917Z,2.39
2023-03-02T03:21:03.907Z,2.43
2023-03-02T03:22:03.921Z,2.39
2023-03-02T03:23:03.898Z,2.35
2023-03-02T03:24:03.877Z,2.29
2023-03-02T03:25:03.856Z,2.17
2023-03-02T03:26:03.849Z,2.24
2023-03-02T03:27:03.838Z,2.29
2023-03-02T03:28:03.831Z,2.22
2023-03-02T03:29:03.822Z,2.18
2023-03-02T03:30:03.815Z,2.24
2023-03-02T03:31:03.828Z,2.25
2023-03-02T03:32:03.836Z,2.33
2023-03-02T03:33:03.783Z,2.43
2023-03-02T03:34:03.780Z,2.36
2023-03-02T03:35:03.751Z,2.33
2023-03-02T03:36:03.730Z,2.33
2023-03-02T03:37:03.721Z,2.29
2023-03-02T03:38:03.714Z,2.31
2023-03-02T03:39:03.695Z,2.25
2023-03-02T03:40:03.722Z,2.29
2023-03-02T03:41:03.681Z,2.32
2023-03-02T03:42:03.666Z,2.18
2023-03-02T03:43:03.662Z,2.22
2023-03-02T03:44:03.645Z,2.35
2023-03-02T03:45:03.646Z,2.33
2023-03-02T03:46:03.672Z,2.25
2023-03-02T03:47:03.630Z,2.26
2023-03-02T03:48:03.587Z,2.28
2023-03-02T03:49:03.579Z,2.24
2023-03-02T03:50:03.568Z,2.31
2023-03-02T03:51:03.586Z,2.38
2023-03-02T03:52:03.550Z,2.33
2023-03-02T03:53:04.028Z,2.43
2023-03-02T03:54:03.532Z,2.39
2023-03-02T03:55:03.506Z,2.31
2023-03-02T03:56:03.498Z,2.36
2023-03-02T03:57:03.504Z,2.50
2023-03-02T03:58:03.488Z,2.62
2023-03-02T03:59:03.466Z,2.67
2023-03-02T04:00:03.465Z,2.61
2023-03-02T04:01:03.449Z,2.53
2023-03-02T04:02:03.496Z,2.54
2023-03-02T04:03:03.461Z,2.43
2023-03-02T04:04:03.434Z,2.43
2023-03-02T04:05:03.400Z,2.28
2023-03-02T04:06:03.393Z,2.31
2023-03-02T04:07:03.390Z,2.32
2023-03-02T04:08:03.368Z,2.26
2023-03-02T04:09:03.363Z,2.33
2023-03-02T04:10:03.382Z,2.29
2023-03-02T04:11:03.330Z,2.26
2023-03-02T04:12:03.323Z,2.39
2023-03-02T04:13:03.311Z,2.35
2023-03-02T04:14:03.314Z,2.35
2023-03-02T04:15:03.283Z,2.50
2023-03-02T04:16:03.392Z,2.49
2023-03-02T04:17:03.268Z,2.54
2023-03-02T04:18:03.253Z,2.54
2023-03-02T04:19:03.231Z,2.44
2023-03-02T04:20:03.251Z,2.39
2023-03-02T04:21:03.230Z,2.36
2023-03-02T04:22:03.209Z,2.44
2023-03-02T04:23:03.196Z,2.49
2023-03-02T04:24:03.185Z,2.47
2023-03-02T04:25:03.168Z,2.57
2023-03-02T04:26:03.192Z,2.64
2023-03-02T04:27:03.149Z,2.68
2023-03-02T04:28:03.142Z,2.61
2023-03-02T04:29:03.123Z,2.47
2023-03-02T04:30:03.136Z,2.42
2023-03-02T04:31:03.139Z,2.47
2023-03-02T04:32:03.164Z,2.47
2023-03-02T04:33:03.089Z,2.53
2023-03-02T04:34:03.077Z,2.43
2023-03-02T04:35:03.066Z,2.33
2023-03-02T04:36:03.091Z,2.31
2023-03-02T04:37:03.071Z,2.36
2023-03-02T04:38:03.049Z,2.43
2023-03-02T04:39:03.021Z,2.39
2023-03-02T04:40:03.013Z,2.36
2023-03-02T04:41:03.002Z,2.31
2023-03-02T04:42:02.992Z,2.36
2023-03-02T04:43:03.000Z,2.33
2023-03-02T04:44:03.018Z,2.35
2023-03-02T04:45:02.964Z,2.42
2023-03-02T04:46:02.971Z,2.32
2023-03-02T04:47:02.933Z,2.29
2023-03-02T04:48:02.929Z,2.36
2023-03-02T04:49:02.928Z,2.31
2023-03-02T04:50:02.919Z,2.32
2023-03-02T04:51:02.891Z,2.31
2023-03-02T04:52:02.884Z,2.32
2023-03-02T04:53:02.870Z,2.24
2023-03-02T04:54:02.883Z,2.35
2023-03-02T04:55:02.865Z,2.39
2023-03-02T04:56:02.831Z,2.36
2023-03-02T04:57:02.822Z,2.29
2023-03-02T04:58:02.813Z,2.26
2023-03-02T04:59:02.802Z,2.22
2023-03-02T05:00:02.795Z,2.32
2023-03-02T05:01:02.792Z,2.22
2023-03-02T05:02:02.850Z,2.28
2023-03-02T05:03:02.756Z,2.22
2023-03-02T05:04:03.167Z,2.28
2023-03-02T05:05:02.729Z,2.33
2023-03-02T05:06:02.739Z,2.22
2023-03-02T05:07:02.724Z,2.29
2023-03-02T05:08:02.698Z,2.22
2023-03-02T05:09:02.691Z,2.32
2023-03-02T05:10:02.719Z,2.36
2023-03-02T05:11:02.691Z,2.35
2023-03-02T05:12:02.671Z,2.36
2023-03-02T05:13:02.677Z,2.24
2023-03-02T05:14:02.638Z,2.29
2023-03-02T05:15:02.625Z,2.25
2023-03-02T05:16:02.695Z,2.33
2023-03-02T05:17:02.602Z,2.25
2023-03-02T05:18:02.600Z,2.25
2023-03-02T05:19:02.569Z,2.29
2023-03-02T05:20:02.569Z,2.31
2023-03-02T05:21:02.582Z,2.28
2023-03-02T05:22:02.565Z,2.26
2023-03-02T05:23:02.549Z,2.29
2023-03-02T05:24:02.531Z,2.32
2023-03-02T05:25:02.515Z,2.29
2023-03-02T05:26:02.499Z,2.28
2023-03-02T05:27:02.491Z,2.29
2023-03-02T05:28:02.490Z,2.28
2023-03-02T05:29:02.480Z,2.22
2023-03-02T05:30:02.455Z,2.20
2023-03-02T05:31:02.500Z,2.35
2023-03-02T05:32:02.471Z,2.32
2023-03-02T05:33:02.418Z,2.29
2023-03-02T05:34:02.409Z,2.25
2023-03-02T05:35:02.456Z,2.15
2023-03-02T05:36:02.395Z,2.22
2023-03-02T05:37:02.375Z,2.13
2023-03-02T05:38:02.366Z,2.15
2023-03-02T05:39:02.380Z,2.22
2023-03-02T05:40:02.371Z,2.28
2023-03-02T05:41:02.354Z,2.26
2023-03-02T05:42:02.314Z,2.35
2023-03-02T05:43:02.322Z,2.33
2023-03-02T05:44:02.300Z,2.32
2023-03-02T05:45:02.276Z,2.36
2023-03-02T05:46:02.275Z,2.31
2023-03-02T05:47:02.377Z,2.32
2023-03-02T05:48:02.254Z,2.36
2023-03-02T05:49:02.237Z,2.38
2023-03-02T05:50:02.224Z,2.33
2023-03-02T05:51:02.217Z,2.39
2023-03-02T05:52:02.234Z,2.24
2023-03-02T05:53:02.213Z,2.26
2023-03-02T05:54:02.187Z,2.25
2023-03-02T05:55:02.179Z,2.29
2023-03-02T05:56:02.167Z,2.29
2023-03-02T05:57:02.163Z,2.32
2023-03-02T05:58:02.152Z,2.29
2023-03-02T05:59:02.125Z,2.32
2023-03-02T06:00:02.126Z,2.42
2023-03-02T06:01:02.104Z,2.33
2023-03-02T06:02:02.114Z,2.31
2023-03-02T06:03:02.148Z,2.42
2023-03-02T06:04:02.106Z,2.39
2023-03-02T06:05:02.062Z,2.31
2023-03-02T06:06:02.044Z,2.28
2023-03-02T06:07:02.036Z,2.25
2023-03-02T06:08:02.023Z,2.29
2023-03-02T06:09:02.007Z,2.38
2023-03-02T06:10:02.030Z,2.39
2023-03-02T06:11:01.991Z,2.46
2023-03-02T06:12:01.972Z,2.47
2023-03-02T06:13:01.959Z,2.47
2023-03-02T06:14:01.946Z,2.51
2023-03-02T06:15:01.940Z,2.53
2023-03-02T06:16:02.007Z,2.51
2023-03-02T06:17:01.913Z,2.53
2023-03-02T06:18:01.908Z,2.54
2023-03-02T06:19:01.894Z,2.49
2023-03-02T06:20:01.896Z,2.44
2023-03-02T06:21:01.895Z,2.43
2023-03-02T06:22:01.874Z,2.47
2023-03-02T06:23:01.843Z,2.53
2023-03-02T06:24:01.847Z,2.61
2023-03-02T06:25:01.828Z,2.65
2023-03-02T06:26:01.815Z,2.60
2023-03-02T06:27:01.818Z,2.65
2023-03-02T06:28:01.796Z,2.68
2023-03-02T06:29:01.774Z,2.60
2023-03-02T06:30:01.793Z,2.65
2023-03-02T06:31:01.761Z,2.68
2023-03-02T06:32:01.935Z,2.64
2023-03-02T06:33:01.765Z,2.56
2023-03-02T06:34:01.725Z,2.61
2023-03-02T06:35:01.787Z,2.79
2023-03-02T06:36:01.843Z,2.68
2023-03-02T06:37:01.705Z,2.64
2023-03-02T06:38:01.715Z,2.62
2023-03-02T06:39:01.663Z,2.74
2023-03-02T06:40:01.806Z,2.77
2023-03-02T06:41:01.656Z,2.79
2023-03-02T06:42:01.645Z,2.79
2023-03-02T06:43:04.078Z,2.77
2023-03-02T06:44:01.648Z,2.75
2023-03-02T06:45:01.628Z,2.77
2023-03-02T06:46:01.655Z,2.86
2023-03-02T06:47:01.574Z,2.85
2023-03-02T06:48:01.623Z,2.98
2023-03-02T06:49:01.557Z,2.93
2023-03-02T06:50:01.609Z,3.04
2023-03-02T06:51:01.617Z,3.10
2023-03-02T06:52:01.527Z,3.18
2023-03-02T06:53:01.528Z,3.19
2023-03-02T06:54:01.508Z,3.28
2023-03-02T06:55:01.511Z,3.48
2023-03-02T06:56:01.492Z,3.63
2023-03-02T06:57:01.471Z,3.74
2023-03-02T06:58:01.454Z,3.95
2023-03-02T06:59:01.448Z,4.34
2023-03-02T07:00:01.434Z,4.63
2023-03-02T07:01:01.481Z,4.99
2023-03-02T07:02:01.416Z,5.23
2023-03-02T07:03:01.406Z,5.56
2023-03-02T07:04:01.475Z,5.97
2023-03-02T07:05:01.385Z,6.24
2023-03-02T07:06:01.373Z,6.51
2023-03-02T07:07:01.361Z,6.67
2023-03-02T07:08:01.351Z,6.59
2023-03-02T07:09:01.330Z,6.52
2023-03-02T07:10:01.320Z,6.67
2023-03-02T07:11:01.309Z,7.06
2023-03-02T07:12:01.308Z,6.92
2023-03-02T07:13:01.302Z,7.15
2023-03-02T07:14:01.293Z,7.18
2023-03-02T07:15:01.276Z,7.35
2023-03-02T07:16:01.249Z,7.31
2023-03-02T07:17:01.262Z,7.54
2023-03-02T07:18:01.259Z,7.58
2023-03-02T07:19:01.217Z,7.57
2023-03-02T07:20:01.207Z,7.90
2023-03-02T07:21:01.192Z,8.03
2023-03-02T07:22:01.180Z,7.94
2023-03-02T07:23:01.170Z,7.88
2023-03-02T07:24:01.182Z,8.13
2023-03-02T07:25:01.144Z,8.23
2023-03-02T07:26:01.138Z,8.31
2023-03-02T07:27:01.136Z,8.64
2023-03-02T07:28:01.119Z,8.91
2023-03-02T07:29:01.122Z,8.49
2023-03-02T07:30:01.106Z,8.41
2023-03-02T07:31:01.129Z,8.53
2023-03-02T07:32:01.100Z,8.85
2023-03-02T07:33:01.060Z,9.40
2023-03-02T07:34:01.045Z,9.87
2023-03-02T07:35:01.066Z,9.06
2023-03-02T07:36:01.062Z,9.11
2023-03-02T07:37:01.008Z,8.79
2023-03-02T07:38:00.997Z,8.70
2023-03-02T07:39:01.000Z,9.08
2023-03-02T07:40:01.146Z,9.25
2023-03-02T07:41:00.979Z,9.43
2023-03-02T07:42:00.948Z,9.46
2023-03-02T07:43:00.941Z,9.87
2023-03-02T07:44:00.928Z,9.97
2023-03-02T07:45:00.918Z,10.09
2023-03-02T07:46:00.931Z,9.62
2023-03-02T07:47:00.911Z,9.58
2023-03-02T07:48:00.889Z,9.66
2023-03-02T07:49:00.877Z,9.68
2023-03-02T07:50:00.870Z,9.59
2023-03-02T07:51:00.849Z,9.89
2023-03-02T07:52:00.840Z,9.56
2023-03-02T07:53:00.849Z,9.80
2023-03-02T07:54:00.819Z,9.51
2023-03-02T07:55:00.817Z,9.62
2023-03-02T07:56:00.811Z,9.97
2023-03-02T07:57:00.792Z,10.23
2023-03-02T07:58:00.795Z,10.15
2023-03-02T07:59:00.760Z,10.42
2023-03-02T08:00:00.758Z,10.13
2023-03-02T08:01:00.753Z,9.97
2023-03-02T08:02:00.757Z,10.05
2023-03-02T08:03:00.780Z,9.46
2023-03-02T08:04:00.725Z,8.97
2023-03-02T08:05:00.698Z,9.02
2023-03-02T08:06:00.681Z,9.11
2023-03-02T08:07:00.672Z,9.34
2023-03-02T08:08:00.665Z,9.31
2023-03-02T08:09:00.650Z,8.87
2023-03-02T08:10:00.640Z,8.64
2023-03-02T08:11:00.620Z,9.22
2023-03-02T08:12:00.613Z,9.68
2023-03-02T08:13:00.604Z,9.48
2023-03-02T08:14:00.582Z,9.14
2023-03-02T08:15:02.165Z,9.21
2023-03-02T08:16:00.709Z,9.00
2023-03-02T08:17:00.604Z,9.13
2023-03-02T08:18:00.554Z,8.99
2023-03-02T08:19:00.535Z,9.06
2023-03-02T08:20:00.570Z,9.31
2023-03-02T08:21:00.522Z,9.29
2023-03-02T08:22:00.493Z,9.32
2023-03-02T08:23:00.488Z,9.87
2023-03-02T08:24:00.504Z,10.19
2023-03-02T08:25:00.480Z,10.23
2023-03-02T08:26:00.473Z,10.30
2023-03-02T08:27:00.443Z,9.54
2023-03-02T08:28:00.440Z,9.00
2023-03-02T08:29:00.423Z,9.34
2023-03-02T08:30:00.403Z,9.54
2023-03-02T08:31:00.404Z,9.68
2023-03-02T08:32:00.505Z,9.51
2023-03-02T08:33:04.455Z,10.05
2023-03-02T08:34:01.368Z,10.13
2023-03-02T08:35:00.354Z,9.91
2023-03-02T08:36:00.437Z,9.36
2023-03-02T08:37:00.322Z,8.87
2023-03-02T08:38:00.326Z,9.04
2023-03-02T08:39:00.304Z,9.26
2023-03-02T08:40:00.302Z,10.01
2023-03-02T08:41:00.285Z,10.57
2023-03-02T08:42:00.266Z,10.63
2023-03-02T08:43:00.264Z,10.57
2023-03-02T08:44:00.274Z,10.26
2023-03-02T08:45:00.246Z,9.92
2023-03-02T08:46:00.368Z,10.34
2023-03-02T08:47:00.213Z,10.46
2023-03-02T08:48:00.208Z,10.68
2023-03-02T08:49:00.190Z,11.02
2023-03-02T08:50:00.225Z,10.92
2023-03-02T08:51:00.161Z,10.49
2023-03-02T08:52:00.153Z,10.53
2023-03-02T08:53:00.154Z,10.23
2023-03-02T08:54:00.130Z,10.46
2023-03-02T08:55:01.635Z,10.51
2023-03-02T08:56:00.135Z,10.93
2023-03-02T08:57:00.123Z,11.12
2023-03-02T08:58:00.096Z,11.60
2023-03-02T08:59:00.070Z,11.62
2023-03-02T09:00:00.082Z,11.57
2023-03-02T09:01:00.185Z,11.23
2023-03-02T09:02:00.038Z,11.04
2023-03-02T09:03:00.034Z,11.35
2023-03-02T09:04:00.123Z,11.62
2023-03-02T09:05:00.131Z,11.11
2023-03-02T09:06:00.002Z,10.78
2023-03-02T09:06:59.980Z,10.89
2023-03-02T09:07:59.966Z,11.22
2023-03-02T09:08:59.962Z,11.59
2023-03-02T09:09:59.940Z,11.75
2023-03-02T09:10:59.930Z,12.07
2023-03-02T09:11:59.956Z,11.83
2023-03-02T09:12:59.914Z,11.59
2023-03-02T09:13:59.907Z,10.81
2023-03-02T09:14:59.889Z,11.18
2023-03-02T09:15:59.871Z,11.07
2023-03-02T09:16:59.909Z,10.33
2023-03-02T09:17:59.862Z,11.00
2023-03-02T09:18:59.844Z,11.52
2023-03-02T09:19:59.830Z,11.65
2023-03-02T09:20:59.828Z,11.41
2023-03-02T09:21:59.804Z,11.02
2023-03-02T09:22:59.822Z,10.82
2023-03-02T09:23:59.784Z,11.14
2023-03-02T09:24:59.774Z,10.99
2023-03-02T09:25:59.765Z,11.05
2023-03-02T09:26:59.756Z,11.25
2023-03-02T09:27:59.747Z,11.37
2023-03-02T09:28:59.752Z,11.36
2023-03-02T09:29:59.714Z,10.97
2023-03-02T09:30:59.730Z,10.75
2023-03-02T09:31:59.744Z,10.86
2023-03-02T09:32:59.784Z,10.92
2023-03-02T09:33:59.683Z,10.71
2023-03-02T09:34:59.680Z,10.26
2023-03-02T09:35:59.647Z,10.17
2023-03-02T09:36:59.678Z,10.15
2023-03-02T09:37:59.656Z,10.10
2023-03-02T09:38:59.637Z,10.09
2023-03-02T09:39:59.629Z,10.04
2023-03-02T09:40:59.605Z,9.84
2023-03-02T09:41:59.576Z,9.39
2023-03-02T09:42:59.586Z,9.50
2023-03-02T09:44:00.212Z,9.73
2023-03-02T09:44:59.548Z,9.56
2023-03-02T09:45:59.591Z,9.68
2023-03-02T09:46:59.568Z,9.91
2023-03-02T09:47:59.519Z,9.65
2023-03-02T09:48:59.504Z,9.72
2023-03-02T09:49:59.489Z,9.61
2023-03-02T09:50:59.490Z,9.76
2023-03-02T09:51:59.467Z,9.87
2023-03-02T09:52:59.465Z,10.05
2023-03-02T09:53:59.470Z,10.02
2023-03-02T09:54:59.434Z,10.04
2023-03-02T09:55:59.415Z,10.02
2023-03-02T09:56:59.500Z,9.91
2023-03-02T09:57:59.405Z,10.10
2023-03-02T09:58:59.385Z,10.23
2023-03-02T10:00:06.651Z,10.15
2023-03-02T10:01:00.368Z,10.10
2023-03-02T10:01:59.349Z,10.34
2023-03-02T10:03:11.426Z,10.59
2023-03-02T10:04:00.436Z,10.63
2023-03-02T10:04:59.318Z,10.38
2023-03-02T10:05:59.329Z,10.31
2023-03-02T10:06:59.296Z,10.05
2023-03-02T10:07:59.500Z,9.86
2023-03-02T10:08:59.262Z,9.64
2023-03-02T10:09:59.294Z,9.83
2023-03-02T10:10:59.256Z,9.82
2023-03-02T10:11:59.233Z,9.98
2023-03-02T10:12:59.223Z,10.09
2023-03-02T10:13:59.212Z,10.22
2023-03-02T10:14:59.205Z,10.42
2023-03-02T10:15:59.241Z,10.53
2023-03-02T10:16:59.178Z,10.17
2023-03-02T10:17:59.187Z,10.23
2023-03-02T10:18:59.168Z,10.17
2023-03-02T10:19:59.147Z,10.05
2023-03-02T10:20:59.121Z,10.17
2023-03-02T10:21:59.140Z,10.30
2023-03-02T10:22:59.106Z,10.40
2023-03-02T10:23:59.101Z,10.54
2023-03-02T10:24:59.093Z,10.20
2023-03-02T10:25:59.074Z,10.34
2023-03-02T10:26:59.064Z,10.60
2023-03-02T10:27:59.057Z,10.78
2023-03-02T10:28:59.050Z,10.99
2023-03-02T10:29:59.039Z,11.17
2023-03-02T10:30:59.029Z,10.93
2023-03-02T10:31:59.030Z,11.18
2023-03-02T10:32:59.020Z,11.18
2023-03-02T10:33:58.984Z,11.02
2023-03-02T10:34:58.982Z,10.93
2023-03-02T10:35:58.953Z,10.74
2023-03-02T10:36:58.943Z,11.00
2023-03-02T10:37:58.932Z,11.00
2023-03-02T10:38:58.942Z,10.96
2023-03-02T10:39:58.905Z,10.92
2023-03-02T10:40:58.904Z,10.96
2023-03-02T10:41:58.912Z,11.12
2023-03-02T10:42:58.873Z,11.29
2023-03-02T10:43:58.861Z,11.55
2023-03-02T10:44:58.872Z,11.44
2023-03-02T10:45:58.880Z,11.30
2023-03-02T10:46:58.835Z,11.41
2023-03-02T10:47:58.813Z,11.54
2023-03-02T10:48:58.804Z,11.19
2023-03-02T10:49:58.884Z,11.15
2023-03-02T10:50:58.968Z,11.11
2023-03-02T10:51:58.773Z,11.19
2023-03-02T10:53:00.719Z,11.22
2023-03-02T10:53:58.753Z,11.26
2023-03-02T10:54:58.741Z,11.14
2023-03-02T10:55:58.731Z,11.43
2023-03-02T10:56:58.717Z,11.33
2023-03-02T10:57:58.714Z,11.45
2023-03-02T10:58:58.692Z,11.68
2023-03-02T10:59:58.676Z,11.69
2023-03-02T11:00:58.691Z,11.81
2023-03-02T11:01:58.737Z,11.75
2023-03-02T11:02:58.650Z,11.36
2023-03-02T11:03:58.646Z,11.41
2023-03-02T11:04:58.777Z,11.22
2023-03-02T11:05:58.647Z,11.45
2023-03-02T11:06:58.607Z,11.51
2023-03-02T11:07:58.620Z,11.66
2023-03-02T11:08:58.593Z,11.70
2023-03-02T11:09:58.573Z,12.07
2023-03-02T11:11:00.882Z,12.04
2023-03-02T11:11:58.608Z,11.99
2023-03-02T11:12:58.559Z,11.95
2023-03-02T11:13:58.520Z,11.81
2023-03-02T11:14:58.511Z,11.75
2023-03-02T11:15:58.504Z,11.91
2023-03-02T11:16:58.483Z,12.15
2023-03-02T11:17:58.473Z,12.32
2023-03-02T11:18:58.483Z,12.39
2023-03-02T11:19:58.453Z,12.40
2023-03-02T11:20:58.434Z,12.53
2023-03-02T11:21:58.421Z,12.32
2023-03-02T11:22:58.424Z,11.99
2023-03-02T11:23:58.408Z,11.80
2023-03-02T11:24:58.403Z,11.60
2023-03-02T11:25:58.401Z,11.60
2023-03-02T11:26:58.373Z,11.48
2023-03-02T11:27:58.362Z,11.47
2023-03-02T11:28:58.347Z,11.66
2023-03-02T11:29:58.368Z,11.73
2023-03-02T11:30:58.365Z,11.94
2023-03-02T11:31:58.487Z,11.90
2023-03-02T11:32:58.341Z,11.86
2023-03-02T11:34:04.782Z,11.81
2023-03-02T11:34:59.297Z,11.95
2023-03-02T11:35:58.342Z,11.73
2023-03-02T11:36:58.285Z,11.81
2023-03-02T11:37:58.244Z,11.88
2023-03-02T11:38:58.234Z,11.80
2023-03-02T11:39:58.221Z,11.90
2023-03-02T11:40:58.228Z,11.84
2023-03-02T11:41:58.214Z,12.03
2023-03-02T11:42:58.196Z,12.17
2023-03-02T11:43:58.174Z,12.36
2023-03-02T11:44:58.179Z,12.43
2023-03-02T11:45:58.164Z,12.62
2023-03-02T11:46:58.188Z,12.85
2023-03-02T11:48:03.112Z,12.93
2023-03-02T11:48:59.115Z,13.09
2023-03-02T11:49:58.106Z,13.04
2023-03-02T11:50:58.116Z,13.19
2023-03-02T11:51:58.842Z,13.04
2023-03-02T11:52:58.076Z,12.82
2023-03-02T11:53:58.093Z,12.86
2023-03-02T11:54:58.052Z,12.91
2023-03-02T11:55:58.052Z,12.95
2023-03-02T11:56:58.026Z,12.82
2023-03-02T11:57:58.037Z,12.73
2023-03-02T11:58:57.997Z,12.57
2023-03-02T11:59:58.028Z,12.45
2023-03-02T12:00:57.985Z,12.40
2023-03-02T12:01:57.983Z,12.57
2023-03-02T12:02:57.959Z,12.83
2023-03-02T12:03:57.975Z,12.73
2023-03-02T12:04:58.186Z,12.86
2023-03-02T12:05:57.933Z,12.95
2023-03-02T12:06:57.916Z,12.85
2023-03-02T12:07:57.907Z,12.91
2023-03-02T12:08:57.907Z,12.93
2023-03-02T12:09:57.898Z,12.82
2023-03-02T12:10:57.870Z,12.82
2023-03-02T12:11:57.858Z,12.65
2023-03-02T12:12:57.849Z,12.60
2023-03-02T12:13:57.837Z,12.64
2023-03-02T12:14:57.832Z,12.47
2023-03-02T12:15:57.825Z,12.46
2023-03-02T12:16:57.858Z,12.72
2023-03-02T12:17:57.837Z,12.91
2023-03-02T12:18:57.778Z,12.65
2023-03-02T12:19:57.888Z,12.82
2023-03-02T12:20:59.490Z,12.93
2023-03-02T12:21:57.750Z,12.80
2023-03-02T12:22:58.936Z,12.93
2023-03-02T12:23:57.719Z,12.93
2023-03-02T12:24:57.712Z,13.13
2023-03-02T12:25:57.712Z,13.46
2023-03-02T12:26:57.700Z,13.70
2023-03-02T12:27:57.682Z,13.50
2023-03-02T12:28:58.530Z,13.39
2023-03-02T12:29:57.651Z,13.25
2023-03-02T12:30:57.671Z,13.19
2023-03-02T12:31:57.793Z,13.12
2023-03-02T12:32:57.630Z,13.20
2023-03-02T12:33:57.613Z,12.97
2023-03-02T12:34:57.587Z,12.90
2023-03-02T12:35:57.590Z,12.73
2023-03-02T12:36:57.590Z,12.82
2023-03-02T12:37:57.690Z,12.93
2023-03-02T12:38:57.551Z,12.97
2023-03-02T12:39:57.540Z,12.78
2023-03-02T12:40:57.536Z,12.86
2023-03-02T12:41:57.539Z,12.90
2023-03-02T12:42:57.643Z,13.08
2023-03-02T12:43:57.529Z,12.90
2023-03-02T12:44:57.544Z,12.79
2023-03-02T12:45:57.542Z,12.91
2023-03-02T12:46:57.458Z,13.05
2023-03-02T12:47:57.640Z,13.13
2023-03-02T12:48:57.597Z,13.23
2023-03-02T12:49:57.492Z,13.27
2023-03-02T12:50:57.413Z,13.53
2023-03-02T12:51:57.489Z,13.47
2023-03-02T12:52:57.409Z,13.56
2023-03-02T12:53:57.482Z,13.63
2023-03-02T12:54:57.381Z,13.78
2023-03-02T12:55:57.389Z,13.75
2023-03-02T12:56:57.342Z,13.62
2023-03-02T12:57:57.332Z,13.53
2023-03-02T12:58:57.321Z,13.62
2023-03-02T12:59:57.312Z,13.63
2023-03-02T13:00:57.392Z,13.68
2023-03-02T13:01:57.290Z,13.74
2023-03-02T13:02:57.345Z,13.57
2023-03-02T13:03:57.284Z,13.62
2023-03-02T13:04:57.252Z,13.65
2023-03-02T13:05:57.264Z,13.60
2023-03-02T13:06:57.242Z,13.63
2023-03-02T13:07:57.221Z,13.60
2023-03-02T13:08:57.260Z,13.67
2023-03-02T13:09:57.367Z,13.75